Airfield :
LOGIN :

Register | Disclaimer

   EN    FR    IT 

 










Legend :    VFR   Marginal VFR   IFR   Intensive IFR   Very Intensive IFR
Visi :
Ceiling :
>= 8 km
>= 3000ft
5 to 8 km
1000 to 3000 ft
1500m to 5 km
500 to 1000 ft
800 to 1500m
200 to 500 ft
< 800m
< 200 ft
Symbols :   Thunderstorms  Fog  Heavy snow  Heavy precipitations  Wind > 20 kt
SIGMETs :     Misc.  Thunderstorms  Icing  Turbulence  Mountain Waves  Volcanic Ashes







- Airport Elevation : 327 ft
- IATA code : BHX
- Download approach charts


EGBB - Birmingham

CURRENT METAR :
  • 230720Z 32005KT 9999 FEW011 M01/M02 Q1000

EXPIRED METARs :
  • 230650Z 34007KT 9999 BKN012 M00/M01 Q1000
  • 230620Z 33009KT 9999 FEW009 BKN018 01/M01 Q0999
  • 230550Z 33010KT 7000 BKN006 00/M00 Q0999
  • 230520Z 33010KT 7000 OVC005 00/M00 Q0999
  • 230450Z 31007KT 7000 OVC005 00/00 Q0999

TAF TAF EGBB
Valid from the 23 at 06:00 until the 24 at 06:00 UTC


230458Z 2306/2406 33005KT 7000 BKN005
BECMG 2306/2309 9999 SCT012
PROB40 2318/2406 6000
TEMPO 2402/2406 BKN009
ATIS : +44 121 780 0910
No reported NOTAMs for that airfield.



MET'MAP, your aeronautical weather chart ! - Copyright ORBIFLY December 2007 - Disclaimer

ORBIFLY MET'MAP TEAM :

Programming & Development : Alexandra Zaïnal
Concept & Development : Baudouin d'Aumeries
Co-Development & Prog : Marc-Olivier Méhu
Technical & hardware support : Manuel Goepfert

Contact : metmap@orbifly.com




SOURCES & CREDITS :

   NOAA